createdAt,value
2017-09-28T00:01:31.055Z,14.80
2017-09-28T00:04:00.197Z,18.80
2017-09-28T00:06:28.606Z,12.77
2017-09-28T00:08:57.749Z,15.17
2017-09-28T00:11:26.153Z,18.50
2017-09-28T00:13:54.533Z,16.50
2017-09-28T00:16:22.910Z,19.07
2017-09-28T00:18:51.313Z,16.63
2017-09-28T00:21:20.473Z,15.07
2017-09-28T00:23:48.880Z,14.20
2017-09-28T00:26:17.250Z,23.20
2017-09-28T00:28:45.645Z,12.67
2017-09-28T00:31:13.343Z,14.40
2017-09-28T00:33:41.067Z,14.23
2017-09-28T00:36:09.269Z,11.63
2017-09-28T00:38:37.726Z,13.10
2017-09-28T00:41:06.697Z,16.17
2017-09-28T00:43:34.389Z,15.53
2017-09-28T00:46:03.207Z,16.70
2017-09-28T00:48:31.600Z,13.20
2017-09-28T00:50:59.656Z,16.03
2017-09-28T00:53:28.032Z,19.93
2017-09-28T00:55:56.440Z,14.60
2017-09-28T00:58:24.837Z,16.63
2017-09-28T01:00:52.884Z,18.00
2017-09-28T01:03:21.299Z,16.27
2017-09-28T01:05:50.456Z,17.40
2017-09-28T01:08:18.510Z,17.60
2017-09-28T01:10:46.541Z,17.07
2017-09-28T01:13:15.206Z,21.40
2017-09-28T01:15:43.581Z,16.30
2017-09-28T01:18:12.002Z,16.07
2017-09-28T01:20:41.161Z,23.17
2017-09-28T01:23:09.202Z,18.23
2017-09-28T01:25:37.255Z,18.40
2017-09-28T01:28:05.646Z,17.40
2017-09-28T01:30:33.363Z,17.70
2017-09-28T01:33:02.525Z,16.67
2017-09-28T01:35:30.245Z,19.97
2017-09-28T01:37:57.972Z,18.60
2017-09-28T01:40:26.674Z,17.57
2017-09-28T01:42:55.836Z,15.57
2017-09-28T01:45:23.535Z,17.43
2017-09-28T01:47:52.001Z,15.50
2017-09-28T01:50:19.692Z,18.03
2017-09-28T01:52:47.397Z,20.23
2017-09-28T01:55:15.797Z,18.23
2017-09-28T01:57:44.197Z,18.23
2017-09-28T02:00:13.343Z,18.57
2017-09-28T02:02:41.562Z,21.67
2017-09-28T02:05:10.725Z,18.20
2017-09-28T02:07:39.113Z,18.53
2017-09-28T02:10:07.573Z,19.97
2017-09-28T02:12:35.728Z,20.30
2017-09-28T02:15:03.777Z,18.70
2017-09-28T02:17:32.154Z,23.00
2017-09-28T02:20:01.326Z,19.00
2017-09-28T02:22:29.715Z,21.17
2017-09-28T02:24:58.701Z,24.43
2017-09-28T02:27:27.167Z,17.40
2017-09-28T02:29:55.606Z,18.70
2017-09-28T02:32:23.645Z,21.10
2017-09-28T02:34:52.446Z,20.00
2017-09-28T02:37:20.489Z,20.93
2017-09-28T02:39:49.661Z,22.03
2017-09-28T02:42:18.076Z,22.90
2017-09-28T02:44:47.226Z,20.03
2017-09-28T02:47:15.844Z,20.27
2017-09-28T02:49:44.996Z,18.70
2017-09-28T02:52:13.379Z,19.80
2017-09-28T02:54:41.778Z,24.17
2017-09-28T02:57:10.153Z,24.93
2017-09-28T02:59:38.550Z,20.57
2017-09-28T03:02:06.970Z,20.90
2017-09-28T03:04:35.373Z,21.00
2017-09-28T03:07:03.838Z,25.80
2017-09-28T03:09:32.051Z,27.00
2017-09-28T03:12:00.448Z,21.83
2017-09-28T03:14:29.617Z,24.40
2017-09-28T03:16:58.018Z,26.10
2017-09-28T03:19:27.183Z,25.47
2017-09-28T03:21:55.601Z,22.73
2017-09-28T03:24:24.750Z,24.03
2017-09-28T03:26:53.147Z,24.70
2017-09-28T03:29:21.525Z,24.60
2017-09-28T03:31:49.993Z,25.33
2017-09-28T03:34:18.369Z,20.57
2017-09-28T03:36:46.782Z,24.03
2017-09-28T03:39:15.174Z,27.23
2017-09-28T03:41:44.342Z,21.13
2017-09-28T03:44:12.746Z,23.10
2017-09-28T03:46:41.974Z,25.30
2017-09-28T03:49:10.357Z,23.87
2017-09-28T03:51:38.758Z,22.70
2017-09-28T03:54:07.173Z,22.23
2017-09-28T03:56:36.334Z,19.43
2017-09-28T03:59:04.739Z,17.97
2017-09-28T04:01:33.934Z,19.80
2017-09-28T04:04:02.338Z,20.03
2017-09-28T04:06:31.506Z,25.23
2017-09-28T04:08:59.897Z,23.50
2017-09-28T04:11:29.058Z,20.97
2017-09-28T04:13:57.441Z,18.97
2017-09-28T04:16:25.864Z,23.53
2017-09-28T04:18:55.016Z,18.90
2017-09-28T04:21:23.217Z,26.07
2017-09-28T04:23:51.609Z,18.57
2017-09-28T04:26:20.417Z,20.53
2017-09-28T04:28:48.828Z,20.40
2017-09-28T04:31:17.220Z,19.93
2017-09-28T04:33:45.609Z,25.23
2017-09-28T04:36:14.002Z,20.83
2017-09-28T04:38:43.185Z,18.30
2017-09-28T04:41:12.740Z,19.97
2017-09-28T04:43:41.114Z,20.90
2017-09-28T04:46:09.521Z,18.70
2017-09-28T04:48:37.922Z,16.70
2017-09-28T04:51:07.083Z,21.77
2017-09-28T04:53:35.519Z,21.40
2017-09-28T04:56:04.702Z,21.07
2017-09-28T04:58:33.086Z,19.63
2017-09-28T05:01:02.269Z,18.10
2017-09-28T05:03:30.670Z,16.63
2017-09-28T05:05:59.906Z,16.07
2017-09-28T05:08:28.362Z,14.97
2017-09-28T05:10:56.767Z,14.77
2017-09-28T05:13:25.177Z,17.43
2017-09-28T05:15:53.572Z,14.50
2017-09-28T05:18:22.751Z,14.17
2017-09-28T05:20:51.142Z,17.27
2017-09-28T05:23:20.338Z,11.43
2017-09-28T05:25:48.722Z,15.60
2017-09-28T05:28:17.882Z,14.10
2017-09-28T05:30:46.283Z,15.37
2017-09-28T05:33:14.686Z,32.40
2017-09-28T05:35:43.677Z,13.90
2017-09-28T05:38:12.926Z,14.37
2017-09-28T05:40:41.370Z,13.60
2017-09-28T05:43:09.589Z,12.77
2017-09-28T05:45:37.999Z,13.43
2017-09-28T05:48:06.194Z,14.00
2017-09-28T05:50:34.391Z,17.70
2017-09-28T05:53:02.811Z,11.50
2017-09-28T05:55:31.226Z,12.07
2017-09-28T05:57:59.610Z,11.30
2017-09-28T06:00:27.314Z,13.80
2017-09-28T06:02:55.700Z,12.00
2017-09-28T06:05:24.082Z,10.53
2017-09-28T06:07:52.536Z,12.47
2017-09-28T06:10:21.145Z,10.53
2017-09-28T06:12:49.525Z,12.30
2017-09-28T06:15:17.922Z,11.90
2017-09-28T06:17:47.079Z,11.50
2017-09-28T06:20:15.478Z,10.60
2017-09-28T06:22:43.957Z,12.60
2017-09-28T06:25:12.375Z,12.17
2017-09-28T06:27:40.788Z,15.47
2017-09-28T06:30:09.198Z,12.60
2017-09-28T06:32:37.572Z,12.40
2017-09-28T06:35:05.850Z,11.93
2017-09-28T06:37:34.249Z,11.97
2017-09-28T06:40:03.409Z,10.47
2017-09-28T06:42:31.803Z,15.80
2017-09-28T06:45:00.197Z,12.53
2017-09-28T06:47:28.595Z,10.70
2017-09-28T06:49:57.741Z,11.20
2017-09-28T06:52:26.134Z,11.53
2017-09-28T06:54:54.541Z,14.53
2017-09-28T06:57:23.693Z,10.87
2017-09-28T06:59:52.091Z,11.30
2017-09-28T07:02:20.464Z,12.50
2017-09-28T07:04:48.862Z,10.90
2017-09-28T07:07:18.025Z,9.90
2017-09-28T07:09:46.405Z,11.53
2017-09-28T07:12:14.797Z,10.60
2017-09-28T07:14:43.175Z,8.13
2017-09-28T07:17:11.597Z,9.60
2017-09-28T07:19:39.978Z,10.57
2017-09-28T07:22:08.381Z,10.50
2017-09-28T07:24:36.413Z,9.57
2017-09-28T07:27:05.569Z,9.80
2017-09-28T07:29:34.026Z,16.90
2017-09-28T07:32:02.070Z,14.80
2017-09-28T07:34:30.517Z,11.57
2017-09-28T07:36:58.912Z,11.43
2017-09-28T07:39:28.073Z,10.60
2017-09-28T07:41:57.224Z,11.40
2017-09-28T07:44:25.609Z,10.33
2017-09-28T07:46:54.006Z,10.97
2017-09-28T07:49:22.406Z,9.80
2017-09-28T07:51:51.624Z,9.40
2017-09-28T07:54:20.003Z,8.50
2017-09-28T07:56:49.178Z,9.17
2017-09-28T07:59:18.321Z,12.93
2017-09-28T08:01:46.694Z,9.60
2017-09-28T08:04:15.090Z,9.20
2017-09-28T08:06:43.483Z,9.67
2017-09-28T08:09:11.872Z,8.43
2017-09-28T08:11:40.274Z,7.33
2017-09-28T08:14:08.665Z,11.10
2017-09-28T08:16:37.816Z,8.80
2017-09-28T08:19:06.200Z,9.80
2017-09-28T08:21:34.593Z,9.70
2017-09-28T08:24:02.983Z,9.17
2017-09-28T08:26:31.386Z,7.80
2017-09-28T08:29:00.550Z,11.10
2017-09-28T08:31:28.951Z,9.90
2017-09-28T08:33:57.335Z,9.70
2017-09-28T08:36:26.496Z,9.40
2017-09-28T08:38:54.883Z,9.20
2017-09-28T08:41:23.264Z,8.17
2017-09-28T08:43:51.654Z,8.20
2017-09-28T08:46:20.048Z,9.00
2017-09-28T08:48:49.207Z,8.00
2017-09-28T08:51:17.595Z,8.20
2017-09-28T08:53:46.003Z,10.17
2017-09-28T08:56:15.152Z,11.27
2017-09-28T08:58:43.534Z,15.70
2017-09-28T09:01:11.938Z,14.13
2017-09-28T09:03:40.337Z,10.33
2017-09-28T09:06:08.754Z,12.40
2017-09-28T09:08:37.150Z,10.97
2017-09-28T09:11:05.552Z,11.33
2017-09-28T09:13:33.930Z,9.80
2017-09-28T09:16:02.318Z,12.73
2017-09-28T09:18:31.510Z,10.73
2017-09-28T09:20:59.893Z,11.10
2017-09-28T09:23:29.053Z,12.70
2017-09-28T09:25:57.510Z,10.43
2017-09-28T09:28:25.893Z,9.67
2017-09-28T09:30:54.290Z,10.57
2017-09-28T09:33:22.672Z,10.50
2017-09-28T09:35:51.063Z,11.50
2017-09-28T09:38:19.448Z,9.27
2017-09-28T09:40:47.837Z,9.63
2017-09-28T09:43:16.033Z,9.43
2017-09-28T09:45:44.441Z,8.63
2017-09-28T09:48:12.824Z,10.93
2017-09-28T09:50:41.024Z,10.03
2017-09-28T09:53:09.413Z,13.80
2017-09-28T09:55:37.786Z,10.33
2017-09-28T09:58:06.179Z,10.93
2017-09-28T10:00:35.754Z,9.33
2017-09-28T10:03:04.140Z,10.93
2017-09-28T10:05:32.519Z,9.53
2017-09-28T10:08:04.018Z,10.43
2017-09-28T10:10:36.081Z,11.97
2017-09-28T10:13:09.606Z,11.73
2017-09-28T10:15:41.113Z,11.53
2017-09-28T10:18:10.109Z,10.80
2017-09-28T10:20:39.069Z,10.27
2017-09-28T10:23:07.462Z,12.53
2017-09-28T10:25:35.889Z,9.43
2017-09-28T10:28:04.269Z,8.70
2017-09-28T10:30:32.682Z,8.77
2017-09-28T10:33:01.069Z,11.27
2017-09-28T10:35:29.484Z,8.60
2017-09-28T10:37:57.872Z,9.37
2017-09-28T10:40:26.270Z,8.57
2017-09-28T10:42:54.677Z,8.87
2017-09-28T10:45:23.059Z,9.20
2017-09-28T10:47:51.455Z,11.47
2017-09-28T10:50:20.596Z,9.97
2017-09-28T10:52:48.999Z,9.03
2017-09-28T10:55:17.380Z,8.93
2017-09-28T10:57:45.770Z,8.20
2017-09-28T11:00:14.159Z,8.43
2017-09-28T11:02:43.301Z,10.20
2017-09-28T11:05:11.695Z,10.83
2017-09-28T11:07:40.070Z,9.43
2017-09-28T11:10:08.487Z,9.37
2017-09-28T11:12:36.869Z,8.70
2017-09-28T11:15:06.031Z,11.47
2017-09-28T11:17:34.439Z,7.80
2017-09-28T11:20:02.829Z,10.37
2017-09-28T11:22:32.011Z,10.60
2017-09-28T11:25:00.398Z,14.17
2017-09-28T11:27:28.776Z,9.37
2017-09-28T11:29:57.919Z,12.23
2017-09-28T11:32:26.294Z,8.07
2017-09-28T11:34:54.687Z,9.57
2017-09-28T11:37:23.142Z,8.37
2017-09-28T11:39:51.546Z,6.80
2017-09-28T11:42:19.929Z,5.30
2017-09-28T11:44:48.318Z,8.90
2017-09-28T11:47:16.693Z,7.53
2017-09-28T11:49:45.108Z,8.13
2017-09-28T11:52:14.279Z,6.77
2017-09-28T11:54:42.677Z,9.77
2017-09-28T11:57:11.836Z,7.03
2017-09-28T11:59:40.995Z,5.30
2017-09-28T12:02:09.960Z,5.90
2017-09-28T12:04:39.132Z,6.70
2017-09-28T12:07:07.515Z,5.40
2017-09-28T12:09:35.910Z,5.80
2017-09-28T12:12:04.339Z,8.67
2017-09-28T12:14:32.777Z,5.17
2017-09-28T12:17:02.065Z,5.20
2017-09-28T12:19:31.321Z,7.57
2017-09-28T12:21:59.706Z,8.90
2017-09-28T12:24:29.903Z,10.50
2017-09-28T12:26:58.289Z,6.97
2017-09-28T12:29:27.132Z,5.73
2017-09-28T12:31:55.521Z,7.53
2017-09-28T12:34:24.664Z,3.60
2017-09-28T12:36:53.089Z,6.50
2017-09-28T12:39:22.295Z,7.93
2017-09-28T12:41:51.449Z,5.23
2017-09-28T12:44:19.841Z,6.73
2017-09-28T12:46:48.220Z,7.10
2017-09-28T12:49:16.628Z,5.37
2017-09-28T12:51:45.771Z,6.30
2017-09-28T12:54:14.200Z,4.90
2017-09-28T12:56:43.360Z,6.13
2017-09-28T12:59:11.737Z,7.20
2017-09-28T13:01:40.150Z,5.43
2017-09-28T13:04:09.295Z,7.03
2017-09-28T13:06:37.731Z,5.53
2017-09-28T13:09:06.915Z,7.37
2017-09-28T13:11:36.078Z,9.03
2017-09-28T13:14:04.461Z,8.73
2017-09-28T13:16:32.868Z,7.07
2017-09-28T13:19:02.033Z,6.03
2017-09-28T13:21:30.423Z,8.03
2017-09-28T13:23:58.820Z,9.07
2017-09-28T13:26:27.988Z,8.57
2017-09-28T13:28:56.196Z,7.53
2017-09-28T13:31:25.351Z,10.20
2017-09-28T13:33:53.745Z,12.80
2017-09-28T13:36:22.138Z,8.83
2017-09-28T13:38:50.514Z,7.70
2017-09-28T13:41:18.942Z,9.33
2017-09-28T13:43:47.355Z,10.40
2017-09-28T13:46:15.756Z,7.80
2017-09-28T13:48:44.153Z,9.07
2017-09-28T13:51:13.306Z,8.97
2017-09-28T13:53:41.695Z,9.37
2017-09-28T13:56:10.119Z,8.37
2017-09-28T13:58:38.518Z,10.40
2017-09-28T14:01:06.903Z,10.67
2017-09-28T14:03:35.305Z,8.30
2017-09-28T14:06:04.480Z,9.40
2017-09-28T14:08:33.921Z,10.20
2017-09-28T14:11:02.314Z,11.13
2017-09-28T14:13:31.475Z,14.47
2017-09-28T14:16:00.641Z,11.57
2017-09-28T14:18:29.078Z,10.70
2017-09-28T14:20:58.277Z,13.43
2017-09-28T14:23:27.465Z,10.70
2017-09-28T14:25:55.987Z,10.70
2017-09-28T14:28:24.381Z,14.83
2017-09-28T14:30:52.591Z,8.40
2017-09-28T14:33:21.070Z,8.63
2017-09-28T14:35:49.459Z,7.33
2017-09-28T14:38:17.905Z,10.73
2017-09-28T14:40:46.329Z,11.27
2017-09-28T14:43:15.498Z,10.77
2017-09-28T14:45:43.901Z,11.50
2017-09-28T14:48:12.311Z,13.87
2017-09-28T14:50:41.163Z,10.57
2017-09-28T14:53:10.339Z,11.77
2017-09-28T14:55:38.749Z,10.10
2017-09-28T14:58:07.245Z,18.20
2017-09-28T15:00:35.821Z,11.10
2017-09-28T15:03:04.242Z,7.97
2017-09-28T15:05:33.397Z,11.70
2017-09-28T15:08:02.554Z,7.27
2017-09-28T15:10:30.970Z,11.93
2017-09-28T15:13:00.118Z,8.70
2017-09-28T15:15:28.323Z,9.10
2017-09-28T15:17:57.295Z,9.90
2017-09-28T15:20:25.698Z,8.97
2017-09-28T15:22:54.877Z,9.47
2017-09-28T15:25:23.283Z,8.47
2017-09-28T15:27:52.451Z,9.47
2017-09-28T15:30:20.887Z,9.03
2017-09-28T15:32:49.299Z,7.10
2017-09-28T15:35:17.710Z,9.47
2017-09-28T15:37:46.895Z,9.73
2017-09-28T15:40:15.926Z,9.27
2017-09-28T15:42:44.325Z,11.33
2017-09-28T15:45:12.530Z,9.73
2017-09-28T15:47:40.727Z,12.13
2017-09-28T15:50:09.913Z,11.07
2017-09-28T15:52:38.295Z,13.77
2017-09-28T15:55:07.463Z,11.13
2017-09-28T15:57:35.867Z,12.87
2017-09-28T16:00:05.068Z,14.07
2017-09-28T16:02:34.266Z,8.73
2017-09-28T16:05:02.650Z,7.53
2017-09-28T16:07:32.677Z,7.40
2017-09-28T16:10:01.067Z,7.33
2017-09-28T16:12:29.479Z,7.60
2017-09-28T16:14:57.845Z,6.87
2017-09-28T16:17:26.270Z,7.47
2017-09-28T16:19:55.419Z,8.20
2017-09-28T16:22:23.486Z,8.93
2017-09-28T16:24:51.883Z,11.40
2017-09-28T16:27:20.259Z,8.90
2017-09-28T16:29:48.654Z,8.43
2017-09-28T16:32:17.021Z,8.10
2017-09-28T16:34:46.229Z,8.10
2017-09-28T16:37:25.979Z,6.50
2017-09-28T16:39:54.591Z,7.47
2017-09-28T16:42:23.742Z,10.30
2017-09-28T16:44:52.131Z,12.20
2017-09-28T16:47:20.532Z,12.80
2017-09-28T16:49:49.698Z,7.43
2017-09-28T16:52:17.901Z,8.73
2017-09-28T16:54:46.861Z,5.80
2017-09-28T16:57:15.262Z,6.10
2017-09-28T16:59:43.661Z,5.77
2017-09-28T17:02:12.859Z,7.43
2017-09-28T17:04:41.310Z,6.30
2017-09-28T17:07:09.745Z,6.33
2017-09-28T17:09:38.150Z,7.23
2017-09-28T17:12:06.531Z,6.57
2017-09-28T17:14:34.966Z,10.03
2017-09-28T17:17:03.345Z,7.97
2017-09-28T17:19:31.837Z,7.03
2017-09-28T17:22:00.229Z,7.50
2017-09-28T17:24:28.642Z,7.17
2017-09-28T17:26:58.047Z,5.40
2017-09-28T17:29:26.442Z,6.93
2017-09-28T17:31:55.610Z,5.50
2017-09-28T17:34:23.843Z,5.37
2017-09-28T17:36:52.045Z,5.30
2017-09-28T17:39:20.449Z,7.97
2017-09-28T17:41:49.629Z,7.50
2017-09-28T17:44:17.844Z,7.60
2017-09-28T17:46:46.978Z,9.43
2017-09-28T17:49:15.380Z,8.77
2017-09-28T17:51:43.759Z,7.87
2017-09-28T17:54:12.158Z,7.60
2017-09-28T17:56:41.314Z,8.13
2017-09-28T17:59:09.693Z,7.20
2017-09-28T18:01:38.094Z,7.40
2017-09-28T18:04:06.484Z,6.77
2017-09-28T18:06:35.675Z,9.30
2017-09-28T18:09:03.230Z,8.93
2017-09-28T18:11:31.434Z,11.33
2017-09-28T18:14:00.419Z,7.37
2017-09-28T18:16:29.583Z,8.03
2017-09-28T18:18:57.769Z,8.00
2017-09-28T18:21:25.970Z,8.30
2017-09-28T18:23:54.365Z,8.13
2017-09-28T18:26:22.555Z,7.90
2017-09-28T18:28:50.967Z,7.30
2017-09-28T18:31:19.161Z,6.70
2017-09-28T18:33:48.424Z,18.37
2017-09-28T18:36:16.827Z,12.03
2017-09-28T18:38:45.233Z,8.33
2017-09-28T18:41:14.394Z,6.77
2017-09-28T18:43:42.773Z,7.20
2017-09-28T18:46:10.976Z,7.37
2017-09-28T18:48:40.130Z,8.30
2017-09-28T18:51:08.747Z,10.30
2017-09-28T18:53:37.028Z,7.60
2017-09-28T18:56:05.508Z,6.50
2017-09-28T18:58:34.490Z,6.70
2017-09-28T19:01:02.898Z,7.17
2017-09-28T19:03:31.289Z,7.37
2017-09-28T19:05:59.526Z,10.27
2017-09-28T19:08:28.519Z,30.70
2017-09-28T19:10:57.681Z,14.77
2017-09-28T19:13:26.094Z,12.63
2017-09-28T19:15:55.054Z,10.47
2017-09-28T19:18:23.505Z,9.27
2017-09-28T19:20:52.087Z,9.80
2017-09-28T19:23:20.555Z,11.10
2017-09-28T19:25:48.985Z,8.00
2017-09-28T19:28:18.202Z,10.57
2017-09-28T19:30:46.495Z,7.00
2017-09-28T19:33:15.643Z,8.50
2017-09-28T19:35:44.141Z,8.50
2017-09-28T19:38:12.676Z,7.97
2017-09-28T19:40:41.085Z,6.70
2017-09-28T19:43:10.261Z,8.33
2017-09-28T19:45:38.665Z,7.80
2017-09-28T19:48:07.045Z,8.83
2017-09-28T19:50:35.985Z,7.70
2017-09-28T19:53:04.378Z,12.23
2017-09-28T19:55:32.754Z,14.03
2017-09-28T19:58:01.167Z,10.03
2017-09-28T20:00:29.549Z,8.03
2017-09-28T20:02:57.933Z,7.60
2017-09-28T20:05:26.328Z,11.33
2017-09-28T20:07:55.506Z,9.57
2017-09-28T20:10:23.890Z,9.33
2017-09-28T20:12:52.329Z,10.80
2017-09-28T20:15:20.981Z,9.03
2017-09-28T20:17:49.934Z,11.43
2017-09-28T20:20:18.133Z,10.20
2017-09-28T20:22:46.318Z,8.43
2017-09-28T20:25:15.474Z,8.40
2017-09-28T20:27:44.625Z,8.13
2017-09-28T20:30:12.711Z,8.37
2017-09-28T20:32:41.094Z,7.40
2017-09-28T20:35:09.473Z,23.07
2017-09-28T20:37:37.685Z,16.60
2017-09-28T20:40:05.873Z,10.80
2017-09-28T20:42:35.047Z,11.70
2017-09-28T20:45:03.432Z,8.20
2017-09-28T20:47:31.873Z,8.17
2017-09-28T20:49:59.898Z,10.37
2017-09-28T20:52:28.368Z,6.93
2017-09-28T20:54:56.747Z,5.60
2017-09-28T20:57:25.151Z,6.27
2017-09-28T20:59:54.262Z,6.90
2017-09-28T21:02:22.702Z,4.67
2017-09-28T21:04:52.209Z,4.10
2017-09-28T21:07:20.628Z,5.90
2017-09-28T21:09:49.046Z,6.13
2017-09-28T21:12:17.481Z,6.73
2017-09-28T21:14:45.901Z,3.73
2017-09-28T21:17:14.318Z,5.73
2017-09-28T21:19:43.502Z,3.40
2017-09-28T21:22:12.718Z,3.07
2017-09-28T21:24:41.136Z,4.43
2017-09-28T21:27:09.534Z,2.70
2017-09-28T21:29:38.047Z,3.43
2017-09-28T21:32:07.205Z,2.50
2017-09-28T21:34:35.567Z,2.60
2017-09-28T21:37:03.973Z,2.97
2017-09-28T21:39:32.388Z,3.27
2017-09-28T21:42:00.770Z,2.97
2017-09-28T21:44:29.929Z,2.67
2017-09-28T21:46:58.340Z,2.90
2017-09-28T21:49:27.500Z,2.80
2017-09-28T21:51:55.915Z,4.00
2017-09-28T21:54:24.135Z,3.57
2017-09-28T21:56:52.530Z,3.40
2017-09-28T21:59:20.750Z,3.23
2017-09-28T22:01:49.909Z,3.40
2017-09-28T22:04:18.285Z,3.80
2017-09-28T22:06:46.703Z,3.90
2017-09-28T22:09:17.476Z,3.67
2017-09-28T22:11:45.890Z,4.90
2017-09-28T22:14:14.085Z,3.13
2017-09-28T22:16:43.242Z,3.30
2017-09-28T22:19:11.673Z,4.10
2017-09-28T22:21:40.057Z,6.10
2017-09-28T22:24:08.457Z,4.30
2017-09-28T22:26:36.645Z,5.03
2017-09-28T22:29:05.054Z,4.20
2017-09-28T22:31:34.213Z,7.40
2017-09-28T22:34:02.595Z,5.60
2017-09-28T22:36:30.986Z,4.07
2017-09-28T22:38:59.366Z,3.27
2017-09-28T22:41:27.766Z,3.33
2017-09-28T22:43:56.936Z,3.90
2017-09-28T22:46:25.338Z,3.00
2017-09-28T22:48:53.721Z,5.90
2017-09-28T22:51:22.888Z,3.60
2017-09-28T22:53:52.082Z,4.33
2017-09-28T22:56:20.485Z,4.67
2017-09-28T22:58:48.874Z,3.73
2017-09-28T23:01:17.826Z,4.23
2017-09-28T23:03:46.221Z,3.67
2017-09-28T23:06:14.425Z,3.30
2017-09-28T23:08:43.574Z,3.67
2017-09-28T23:11:12.732Z,3.40
2017-09-28T23:13:41.111Z,3.13
2017-09-28T23:16:09.488Z,3.90
2017-09-28T23:18:37.861Z,3.63
2017-09-28T23:21:06.259Z,4.30
2017-09-28T23:23:34.630Z,4.00
2017-09-28T23:26:03.014Z,3.23
2017-09-28T23:28:31.401Z,4.50
2017-09-28T23:30:59.789Z,3.67
2017-09-28T23:33:28.201Z,4.10
2017-09-28T23:35:56.587Z,4.90
2017-09-28T23:38:25.749Z,4.07
2017-09-28T23:40:54.115Z,3.83
2017-09-28T23:43:22.502Z,3.40
2017-09-28T23:45:50.921Z,4.03
2017-09-28T23:48:20.080Z,6.20
2017-09-28T23:50:48.489Z,4.60
2017-09-28T23:53:17.651Z,4.40
2017-09-28T23:55:46.061Z,5.40
2017-09-28T23:58:15.225Z,4.70
